Etusivu
METAR-TAF:

METAR-TAF

Lentoasemat :

Wahoo, Nebraska, Yhdysvallat

Leveyspiiri: 41-14-26N, Pituuspiiri: 096-35-40W, korkeus merenpinnasta: 373 m

Tämänhetkinen sää

Tämä raportti tehtiin 17 minuuttia sitten, kello 07.55 UTC
Tuuli 6 kn lännestä/luoteesta
Lämpötila 9°C
Kosteus 76%
Ilmanpaine 1018 hPa
Näkyvyys: 16.1 km
selkeää

METAR: KAHQ 290755Z AUTO 29006KT 10SM CLR 09/05 A3007 RMK AO2 T00850050

Aika: 03:12 (08:12 UTC)


TAF: puuttuu

Säähavainnot ja -ennusteet yli 4000 lentoasemalta (METAR- ja TAF-raportit).

Käytössä olevat sääasemat on merkitty karttaan keltaisilla ja punaisilla pisteillä.

Aseta hiiri pisteen päälle nähdäksesi sääaseman nimen.

Klikkaa sitten nähdäksesi säähavainnot ja -ennusteet.

Kartan vaihtaminen: klikkaa mustalla rastilla varustettuja vihreitä pisteitä, niin voit zoomata sisään; viivalla varustettua vihreää pistettä, niin voit zoomata ulos tai vihreitä nuolia, niin pääset viereisille kartoille.


METAR-TAF: